Galveston Bay Weather

Located on Galveston Bay in Seabrook, Texas

Weather Links

Aviation Weather Information
GALVESTON, TX
Metar
KGLS 200121Z AUTO 13016KT 7SM BKN023 OVC070 21/19 A2998 RMK AO2 T02060194

01:21 UTC

Wind: 130° 16kt

Visibility: 7 SM

Sky: BKN 2300 ft

Temp: 21 deg C / 69.8 deg F

Dewpoint: 19 deg C / 66.2 deg F

Pressure: 29.98 inHg

TAF
KGLS 200129Z 2001/2024 13016KT 4SM BR BKN025 OVC060 FM200300 15015KT 2SM BR OVC007 FM200700 14015KT 1SM BR OVC003 TEMPO 2010/2013 1/2SM FG OVC001 FM201600 14012KT 2SM BR BKN005 OVC012 FM201800 15016KT 6SM BR FEW009 BKN050 BKN120
Pireps (12)
IAH UA /OV 2 SW IAH/TM 0047/FL013/TP B739/SK BKN013
IAH UA /OV IAH/TM 0040/FL020/TP B738/SK OVC 020 T086
IAH UA /OV KIAH280004/TM 0018/FLUNKN/TP E170/SK OVC018/RM DURD RY8R
IAH UA /OV KIAH280004/TM 0018/FLUNKN/TP E170/SK OVC018/RM DURD RY8R
IAH UA /OV KIAH280004/TM 0018/FLUNK/TP E170/SK OVC018/RM DURD RY8R
IAH UA /OV KIAH280004/TM 0018/FLUNK/TP E170/SK OVC018/RM DURD RY8R
IAH UA /OV KIAH280004/TM 0018/FLUNK/TP E170/SK OVC018/RM DURD RY8R
IAH UA /OV CXO/TM 0014/FL015/TP SR22/RM VIS 4SM BASES 012
IAH UA /OV 270004/TM 2359/FLUNK/TP A320/SK OVC020
IAH UA /OV 270004/TM 2359/FLUNK/TP A320/SK OVC020
IAH UA /OV 270004/TM 2359/FLUNK/TP A320/SK OVC020
DWH UA /OV 1NM N DWH/TM 2346/FL005/TP C172/WV WIND SHEAR +/- 15KTS SHORT FINAL
Galveston Bay Weather Station © 2016